sensor_id;sensor_type;location;lat;lon;timestamp;P1;durP1;ratioP1;P2;durP2;ratioP2
42244;SDS011;27912;51.828;5.688;2022-07-10T00:01:42;4.35;;;0.30;;
42244;SDS011;27912;51.828;5.688;2022-07-10T00:04:07;4.13;;;0.40;;
42244;SDS011;27912;51.828;5.688;2022-07-10T00:06:33;4.82;;;0.40;;
42244;SDS011;27912;51.828;5.688;2022-07-10T00:08:58;4.85;;;0.30;;
42244;SDS011;27912;51.828;5.688;2022-07-10T00:11:24;3.08;;;0.93;;
42244;SDS011;27912;51.828;5.688;2022-07-10T00:13:49;3.67;;;0.35;;
42244;SDS011;27912;51.828;5.688;2022-07-10T00:16:15;4.95;;;0.50;;
42244;SDS011;27912;51.828;5.688;2022-07-10T00:18:40;5.00;;;0.65;;
42244;SDS011;27912;51.828;5.688;2022-07-10T00:21:06;4.63;;;0.40;;
42244;SDS011;27912;51.828;5.688;2022-07-10T00:23:32;4.70;;;0.43;;
42244;SDS011;27912;51.828;5.688;2022-07-10T00:25:57;3.65;;;0.50;;
42244;SDS011;27912;51.828;5.688;2022-07-10T00:28:23;4.10;;;0.50;;
42244;SDS011;27912;51.828;5.688;2022-07-10T00:30:49;2.47;;;0.40;;
42244;SDS011;27912;51.828;5.688;2022-07-10T00:33:15;6.72;;;0.60;;
42244;SDS011;27912;51.828;5.688;2022-07-10T00:35:40;6.55;;;0.70;;
42244;SDS011;27912;51.828;5.688;2022-07-10T00:38:06;4.75;;;0.70;;
42244;SDS011;27912;51.828;5.688;2022-07-10T00:40:31;3.47;;;0.50;;
42244;SDS011;27912;51.828;5.688;2022-07-10T00:42:57;4.18;;;0.55;;
42244;SDS011;27912;51.828;5.688;2022-07-10T00:45:22;4.20;;;0.70;;
42244;SDS011;27912;51.828;5.688;2022-07-10T00:47:48;3.38;;;0.70;;
42244;SDS011;27912;51.828;5.688;2022-07-10T00:50:13;3.53;;;0.85;;
42244;SDS011;27912;51.828;5.688;2022-07-10T00:52:39;5.22;;;0.80;;
42244;SDS011;27912;51.828;5.688;2022-07-10T00:55:06;5.38;;;0.95;;
42244;SDS011;27912;51.828;5.688;2022-07-10T00:57:34;4.10;;;0.52;;
42244;SDS011;27912;51.828;5.688;2022-07-10T01:00:01;5.65;;;0.50;;
42244;SDS011;27912;51.828;5.688;2022-07-10T01:02:27;4.03;;;0.70;;
42244;SDS011;27912;51.828;5.688;2022-07-10T01:04:53;4.35;;;0.60;;
42244;SDS011;27912;51.828;5.688;2022-07-10T01:07:21;8.07;;;0.50;;
42244;SDS011;27912;51.828;5.688;2022-07-10T01:09:47;2.75;;;0.50;;
42244;SDS011;27912;51.828;5.688;2022-07-10T01:12:12;3.63;;;0.68;;
42244;SDS011;27912;51.828;5.688;2022-07-10T01:14:39;4.78;;;0.50;;
42244;SDS011;27912;51.828;5.688;2022-07-10T01:17:07;3.47;;;0.52;;
42244;SDS011;27912;51.828;5.688;2022-07-10T01:19:34;3.42;;;0.50;;
42244;SDS011;27912;51.828;5.688;2022-07-10T01:22:00;3.88;;;0.70;;
42244;SDS011;27912;51.828;5.688;2022-07-10T01:24:26;4.18;;;0.40;;
42244;SDS011;27912;51.828;5.688;2022-07-10T01:26:52;4.85;;;0.40;;
42244;SDS011;27912;51.828;5.688;2022-07-10T01:29:17;4.43;;;0.90;;
42244;SDS011;27912;51.828;5.688;2022-07-10T01:31:43;2.92;;;0.40;;
42244;SDS011;27912;51.828;5.688;2022-07-10T01:34:10;6.35;;;0.63;;
42244;SDS011;27912;51.828;5.688;2022-07-10T01:36:35;4.63;;;0.50;;
42244;SDS011;27912;51.828;5.688;2022-07-10T01:39:02;2.03;;;0.32;;
42244;SDS011;27912;51.828;5.688;2022-07-10T01:41:28;3.83;;;0.50;;
42244;SDS011;27912;51.828;5.688;2022-07-10T01:43:54;5.47;;;0.70;;
42244;SDS011;27912;51.828;5.688;2022-07-10T01:46:19;9.35;;;0.50;;
42244;SDS011;27912;51.828;5.688;2022-07-10T01:48:45;3.67;;;0.45;;
42244;SDS011;27912;51.828;5.688;2022-07-10T01:51:11;5.13;;;0.40;;
42244;SDS011;27912;51.828;5.688;2022-07-10T01:53:37;3.30;;;0.47;;
42244;SDS011;27912;51.828;5.688;2022-07-10T01:56:05;5.93;;;0.80;;
42244;SDS011;27912;51.828;5.688;2022-07-10T01:58:35;3.03;;;0.40;;
42244;SDS011;27912;51.828;5.688;2022-07-10T02:01:01;4.20;;;0.38;;
42244;SDS011;27912;51.828;5.688;2022-07-10T02:03:28;5.65;;;0.50;;
42244;SDS011;27912;51.828;5.688;2022-07-10T02:06:12;4.18;;;0.60;;
42244;SDS011;27912;51.828;5.688;2022-07-10T02:08:38;6.50;;;0.70;;
42244;SDS011;27912;51.828;5.688;2022-07-10T02:11:04;3.58;;;0.55;;
42244;SDS011;27912;51.828;5.688;2022-07-10T02:13:29;5.00;;;1.48;;
42244;SDS011;27912;51.828;5.688;2022-07-10T02:15:56;4.78;;;0.50;;
42244;SDS011;27912;51.828;5.688;2022-07-10T02:18:22;7.90;;;0.60;;
42244;SDS011;27912;51.828;5.688;2022-07-10T02:20:48;6.13;;;0.63;;
42244;SDS011;27912;51.828;5.688;2022-07-10T02:23:14;3.78;;;0.52;;
42244;SDS011;27912;51.828;5.688;2022-07-10T02:25:40;8.93;;;0.80;;
42244;SDS011;27912;51.828;5.688;2022-07-10T02:28:05;2.95;;;0.57;;
42244;SDS011;27912;51.828;5.688;2022-07-10T02:30:33;6.50;;;1.85;;
42244;SDS011;27912;51.828;5.688;2022-07-10T02:32:58;4.05;;;0.82;;
42244;SDS011;27912;51.828;5.688;2022-07-10T02:35:24;5.45;;;0.50;;
42244;SDS011;27912;51.828;5.688;2022-07-10T02:37:49;3.30;;;0.60;;
42244;SDS011;27912;51.828;5.688;2022-07-10T02:40:15;5.68;;;0.70;;
42244;SDS011;27912;51.828;5.688;2022-07-10T02:42:40;4.10;;;0.70;;
42244;SDS011;27912;51.828;5.688;2022-07-10T02:45:06;3.30;;;0.60;;
42244;SDS011;27912;51.828;5.688;2022-07-10T02:47:32;7.00;;;1.00;;
42244;SDS011;27912;51.828;5.688;2022-07-10T02:49:58;4.13;;;0.60;;
42244;SDS011;27912;51.828;5.688;2022-07-10T02:52:23;3.92;;;0.63;;
42244;SDS011;27912;51.828;5.688;2022-07-10T02:54:49;5.75;;;0.95;;
42244;SDS011;27912;51.828;5.688;2022-07-10T02:57:15;7.00;;;1.00;;
42244;SDS011;27912;51.828;5.688;2022-07-10T02:59:41;6.25;;;0.90;;
42244;SDS011;27912;51.828;5.688;2022-07-10T03:02:07;6.07;;;1.00;;
42244;SDS011;27912;51.828;5.688;2022-07-10T03:04:32;3.90;;;0.68;;
42244;SDS011;27912;51.828;5.688;2022-07-10T03:06:58;3.70;;;1.10;;
42244;SDS011;27912;51.828;5.688;2022-07-10T03:09:24;4.88;;;0.88;;
42244;SDS011;27912;51.828;5.688;2022-07-10T03:11:50;3.88;;;0.60;;
42244;SDS011;27912;51.828;5.688;2022-07-10T03:14:16;5.00;;;1.00;;
42244;SDS011;27912;51.828;5.688;2022-07-10T03:16:42;5.70;;;1.20;;
42244;SDS011;27912;51.828;5.688;2022-07-10T03:19:08;6.57;;;0.60;;
42244;SDS011;27912;51.828;5.688;2022-07-10T03:21:33;4.30;;;0.68;;
42244;SDS011;27912;51.828;5.688;2022-07-10T03:23:59;4.70;;;0.70;;
42244;SDS011;27912;51.828;5.688;2022-07-10T03:26:25;5.57;;;0.75;;
42244;SDS011;27912;51.828;5.688;2022-07-10T03:28:51;3.60;;;1.00;;
42244;SDS011;27912;51.828;5.688;2022-07-10T03:31:17;4.03;;;0.90;;
42244;SDS011;27912;51.828;5.688;2022-07-10T03:33:42;4.43;;;1.00;;
42244;SDS011;27912;51.828;5.688;2022-07-10T03:36:08;4.00;;;0.70;;
42244;SDS011;27912;51.828;5.688;2022-07-10T03:38:33;3.10;;;0.77;;
42244;SDS011;27912;51.828;5.688;2022-07-10T03:40:59;7.70;;;1.90;;
42244;SDS011;27912;51.828;5.688;2022-07-10T03:43:24;6.20;;;1.17;;
42244;SDS011;27912;51.828;5.688;2022-07-10T03:45:50;5.45;;;0.60;;
42244;SDS011;27912;51.828;5.688;2022-07-10T03:48:16;5.25;;;0.88;;
42244;SDS011;27912;51.828;5.688;2022-07-10T03:50:42;11.00;;;1.98;;
42244;SDS011;27912;51.828;5.688;2022-07-10T03:53:07;3.63;;;0.93;;
42244;SDS011;27912;51.828;5.688;2022-07-10T03:55:33;3.90;;;0.80;;
42244;SDS011;27912;51.828;5.688;2022-07-10T03:57:58;6.15;;;1.17;;
42244;SDS011;27912;51.828;5.688;2022-07-10T04:00:27;4.55;;;0.80;;
42244;SDS011;27912;51.828;5.688;2022-07-10T04:02:59;6.72;;;1.25;;
42244;SDS011;27912;51.828;5.688;2022-07-10T04:05:26;5.03;;;1.10;;
42244;SDS011;27912;51.828;5.688;2022-07-10T04:07:53;6.38;;;1.25;;
42244;SDS011;27912;51.828;5.688;2022-07-10T04:10:19;7.07;;;1.02;;
42244;SDS011;27912;51.828;5.688;2022-07-10T04:12:45;10.90;;;1.10;;
42244;SDS011;27912;51.828;5.688;2022-07-10T04:15:12;6.20;;;1.42;;
42244;SDS011;27912;51.828;5.688;2022-07-10T04:17:38;5.43;;;1.10;;
42244;SDS011;27912;51.828;5.688;2022-07-10T04:20:04;5.78;;;0.90;;
42244;SDS011;27912;51.828;5.688;2022-07-10T04:22:30;6.95;;;1.30;;
42244;SDS011;27912;51.828;5.688;2022-07-10T04:24:56;5.55;;;0.90;;
42244;SDS011;27912;51.828;5.688;2022-07-10T04:27:21;8.43;;;1.40;;
42244;SDS011;27912;51.828;5.688;2022-07-10T04:29:47;4.28;;;0.90;;
42244;SDS011;27912;51.828;5.688;2022-07-10T04:32:14;8.10;;;1.15;;
42244;SDS011;27912;51.828;5.688;2022-07-10T04:34:40;3.40;;;0.70;;
42244;SDS011;27912;51.828;5.688;2022-07-10T04:37:06;5.30;;;0.90;;
42244;SDS011;27912;51.828;5.688;2022-07-10T04:39:32;11.82;;;1.45;;
42244;SDS011;27912;51.828;5.688;2022-07-10T04:41:59;6.88;;;1.10;;
42244;SDS011;27912;51.828;5.688;2022-07-10T04:44:24;5.95;;;0.88;;
42244;SDS011;27912;51.828;5.688;2022-07-10T04:46:50;4.20;;;0.77;;
42244;SDS011;27912;51.828;5.688;2022-07-10T04:49:15;9.05;;;1.00;;
42244;SDS011;27912;51.828;5.688;2022-07-10T04:51:41;5.80;;;0.82;;
42244;SDS011;27912;51.828;5.688;2022-07-10T04:54:07;8.68;;;1.13;;
42244;SDS011;27912;51.828;5.688;2022-07-10T04:56:32;3.70;;;0.80;;
42244;SDS011;27912;51.828;5.688;2022-07-10T04:58:58;5.68;;;0.77;;
42244;SDS011;27912;51.828;5.688;2022-07-10T05:01:23;4.25;;;0.52;;
42244;SDS011;27912;51.828;5.688;2022-07-10T05:03:49;7.00;;;0.60;;
42244;SDS011;27912;51.828;5.688;2022-07-10T05:06:14;5.47;;;0.70;;
42244;SDS011;27912;51.828;5.688;2022-07-10T05:08:40;4.07;;;0.73;;
42244;SDS011;27912;51.828;5.688;2022-07-10T05:11:05;2.42;;;0.50;;
42244;SDS011;27912;51.828;5.688;2022-07-10T05:13:31;4.03;;;0.65;;
42244;SDS011;27912;51.828;5.688;2022-07-10T05:15:57;5.43;;;0.77;;
42244;SDS011;27912;51.828;5.688;2022-07-10T05:18:22;6.55;;;0.80;;
42244;SDS011;27912;51.828;5.688;2022-07-10T05:20:48;4.45;;;0.90;;
42244;SDS011;27912;51.828;5.688;2022-07-10T05:23:15;4.15;;;0.85;;
42244;SDS011;27912;51.828;5.688;2022-07-10T05:25:41;6.10;;;0.73;;
42244;SDS011;27912;51.828;5.688;2022-07-10T05:28:07;4.45;;;0.90;;
42244;SDS011;27912;51.828;5.688;2022-07-10T05:30:33;6.72;;;0.80;;
42244;SDS011;27912;51.828;5.688;2022-07-10T05:33:00;7.20;;;0.77;;
42244;SDS011;27912;51.828;5.688;2022-07-10T05:35:26;7.75;;;0.98;;
42244;SDS011;27912;51.828;5.688;2022-07-10T05:37:52;9.20;;;1.05;;
42244;SDS011;27912;51.828;5.688;2022-07-10T05:40:17;7.05;;;1.23;;
42244;SDS011;27912;51.828;5.688;2022-07-10T05:42:43;4.85;;;0.60;;
42244;SDS011;27912;51.828;5.688;2022-07-10T05:45:10;6.57;;;1.15;;
42244;SDS011;27912;51.828;5.688;2022-07-10T05:47:35;9.43;;;0.60;;
42244;SDS011;27912;51.828;5.688;2022-07-10T05:50:01;4.63;;;0.60;;
42244;SDS011;27912;51.828;5.688;2022-07-10T05:52:27;5.45;;;0.47;;
42244;SDS011;27912;51.828;5.688;2022-07-10T05:54:52;5.60;;;0.70;;
42244;SDS011;27912;51.828;5.688;2022-07-10T05:57:18;3.55;;;0.60;;
42244;SDS011;27912;51.828;5.688;2022-07-10T05:59:44;4.30;;;0.70;;
42244;SDS011;27912;51.828;5.688;2022-07-10T06:02:09;6.07;;;0.70;;
42244;SDS011;27912;51.828;5.688;2022-07-10T06:04:35;4.93;;;0.60;;
42244;SDS011;27912;51.828;5.688;2022-07-10T06:07:01;6.13;;;0.85;;
42244;SDS011;27912;51.828;5.688;2022-07-10T06:09:27;5.65;;;0.60;;
42244;SDS011;27912;51.828;5.688;2022-07-10T06:11:52;7.72;;;1.00;;
42244;SDS011;27912;51.828;5.688;2022-07-10T06:14:18;9.23;;;0.60;;
42244;SDS011;27912;51.828;5.688;2022-07-10T06:16:43;6.05;;;0.80;;
42244;SDS011;27912;51.828;5.688;2022-07-10T06:19:09;4.28;;;0.40;;
42244;SDS011;27912;51.828;5.688;2022-07-10T06:21:34;4.22;;;0.50;;
42244;SDS011;27912;51.828;5.688;2022-07-10T06:24:00;4.00;;;0.47;;
42244;SDS011;27912;51.828;5.688;2022-07-10T06:26:26;4.65;;;0.60;;
42244;SDS011;27912;51.828;5.688;2022-07-10T06:28:51;5.97;;;0.50;;
42244;SDS011;27912;51.828;5.688;2022-07-10T06:31:17;3.83;;;0.40;;
42244;SDS011;27912;51.828;5.688;2022-07-10T06:33:42;6.60;;;0.80;;
42244;SDS011;27912;51.828;5.688;2022-07-10T06:36:08;7.57;;;0.60;;
42244;SDS011;27912;51.828;5.688;2022-07-10T06:38:34;2.08;;;0.50;;
42244;SDS011;27912;51.828;5.688;2022-07-10T06:40:59;4.63;;;0.40;;
42244;SDS011;27912;51.828;5.688;2022-07-10T06:43:25;4.13;;;0.50;;
42244;SDS011;27912;51.828;5.688;2022-07-10T06:45:51;4.38;;;0.40;;
42244;SDS011;27912;51.828;5.688;2022-07-10T06:48:17;6.22;;;0.55;;
42244;SDS011;27912;51.828;5.688;2022-07-10T06:50:43;6.38;;;0.38;;
42244;SDS011;27912;51.828;5.688;2022-07-10T06:53:09;7.30;;;0.50;;
42244;SDS011;27912;51.828;5.688;2022-07-10T06:55:35;3.90;;;0.50;;
42244;SDS011;27912;51.828;5.688;2022-07-10T06:58:00;3.97;;;0.43;;
42244;SDS011;27912;51.828;5.688;2022-07-10T07:00:27;8.63;;;0.70;;
42244;SDS011;27912;51.828;5.688;2022-07-10T07:02:53;8.40;;;0.60;;
42244;SDS011;27912;51.828;5.688;2022-07-10T07:05:18;5.80;;;0.40;;
42244;SDS011;27912;51.828;5.688;2022-07-10T07:07:44;5.65;;;0.50;;
42244;SDS011;27912;51.828;5.688;2022-07-10T07:10:10;4.28;;;0.50;;
42244;SDS011;27912;51.828;5.688;2022-07-10T07:12:36;6.00;;;0.40;;
42244;SDS011;27912;51.828;5.688;2022-07-10T07:15:02;7.28;;;0.55;;
42244;SDS011;27912;51.828;5.688;2022-07-10T07:17:28;4.78;;;0.40;;
42244;SDS011;27912;51.828;5.688;2022-07-10T07:20:00;7.85;;;0.38;;
42244;SDS011;27912;51.828;5.688;2022-07-10T07:22:44;5.10;;;0.40;;
42244;SDS011;27912;51.828;5.688;2022-07-10T07:25:29;7.57;;;0.70;;
42244;SDS011;27912;51.828;5.688;2022-07-10T07:27:54;4.45;;;0.50;;
42244;SDS011;27912;51.828;5.688;2022-07-10T07:30:20;10.10;;;1.08;;
42244;SDS011;27912;51.828;5.688;2022-07-10T07:32:46;3.95;;;0.47;;
42244;SDS011;27912;51.828;5.688;2022-07-10T07:35:13;4.47;;;0.60;;
42244;SDS011;27912;51.828;5.688;2022-07-10T07:37:40;7.85;;;0.63;;
42244;SDS011;27912;51.828;5.688;2022-07-10T07:40:14;6.20;;;0.50;;
42244;SDS011;27912;51.828;5.688;2022-07-10T07:42:44;3.20;;;0.38;;
42244;SDS011;27912;51.828;5.688;2022-07-10T07:45:10;3.13;;;0.40;;
42244;SDS011;27912;51.828;5.688;2022-07-10T07:47:45;5.22;;;0.75;;
42244;SDS011;27912;51.828;5.688;2022-07-10T07:50:33;7.00;;;0.40;;
42244;SDS011;27912;51.828;5.688;2022-07-10T07:53:00;2.95;;;0.43;;
42244;SDS011;27912;51.828;5.688;2022-07-10T07:55:27;3.63;;;0.43;;
42244;SDS011;27912;51.828;5.688;2022-07-10T07:57:54;4.55;;;0.40;;
42244;SDS011;27912;51.828;5.688;2022-07-10T08:00:20;5.57;;;0.50;;
42244;SDS011;27912;51.828;5.688;2022-07-10T08:02:48;7.03;;;0.50;;
42244;SDS011;27912;51.828;5.688;2022-07-10T08:05:14;3.78;;;0.40;;
42244;SDS011;27912;51.828;5.688;2022-07-10T08:07:47;6.15;;;0.45;;
42244;SDS011;27912;51.828;5.688;2022-07-10T08:10:18;6.93;;;0.60;;
42244;SDS011;27912;51.828;5.688;2022-07-10T08:12:45;4.10;;;0.30;;
42244;SDS011;27912;51.828;5.688;2022-07-10T08:15:12;7.75;;;0.77;;
42244;SDS011;27912;51.828;5.688;2022-07-10T08:17:39;8.43;;;0.60;;
42244;SDS011;27912;51.828;5.688;2022-07-10T08:20:05;4.97;;;0.35;;
42244;SDS011;27912;51.828;5.688;2022-07-10T08:22:32;6.25;;;0.68;;
42244;SDS011;27912;51.828;5.688;2022-07-10T08:24:59;3.13;;;0.45;;
42244;SDS011;27912;51.828;5.688;2022-07-10T08:27:24;3.90;;;0.50;;
42244;SDS011;27912;51.828;5.688;2022-07-10T08:29:50;5.60;;;0.65;;
42244;SDS011;27912;51.828;5.688;2022-07-10T08:32:16;1.98;;;0.30;;
42244;SDS011;27912;51.828;5.688;2022-07-10T08:34:41;5.70;;;0.43;;
42244;SDS011;27912;51.828;5.688;2022-07-10T08:37:07;4.60;;;0.60;;
42244;SDS011;27912;51.828;5.688;2022-07-10T08:39:33;3.72;;;0.45;;
42244;SDS011;27912;51.828;5.688;2022-07-10T08:41:59;6.18;;;0.80;;
42244;SDS011;27912;51.828;5.688;2022-07-10T08:44:25;5.80;;;0.50;;
42244;SDS011;27912;51.828;5.688;2022-07-10T08:46:51;7.57;;;0.50;;
42244;SDS011;27912;51.828;5.688;2022-07-10T08:49:17;2.13;;;0.30;;
42244;SDS011;27912;51.828;5.688;2022-07-10T08:51:46;6.22;;;0.40;;
42244;SDS011;27912;51.828;5.688;2022-07-10T08:54:18;7.25;;;0.50;;
42244;SDS011;27912;51.828;5.688;2022-07-10T08:56:44;5.63;;;0.43;;
42244;SDS011;27912;51.828;5.688;2022-07-10T08:59:12;1.98;;;0.40;;
42244;SDS011;27912;51.828;5.688;2022-07-10T09:01:39;5.35;;;0.55;;
42244;SDS011;27912;51.828;5.688;2022-07-10T09:04:05;2.95;;;0.57;;
42244;SDS011;27912;51.828;5.688;2022-07-10T09:06:31;4.65;;;0.50;;
42244;SDS011;27912;51.828;5.688;2022-07-10T09:09:04;4.25;;;0.50;;
42244;SDS011;27912;51.828;5.688;2022-07-10T09:11:31;2.83;;;0.30;;
42244;SDS011;27912;51.828;5.688;2022-07-10T09:13:58;4.72;;;0.40;;
42244;SDS011;27912;51.828;5.688;2022-07-10T09:16:26;3.50;;;0.50;;
42244;SDS011;27912;51.828;5.688;2022-07-10T09:18:57;4.53;;;0.50;;
42244;SDS011;27912;51.828;5.688;2022-07-10T09:21:40;4.10;;;0.50;;
42244;SDS011;27912;51.828;5.688;2022-07-10T09:24:07;2.83;;;0.40;;
42244;SDS011;27912;51.828;5.688;2022-07-10T09:26:33;5.50;;;0.50;;
42244;SDS011;27912;51.828;5.688;2022-07-10T09:29:09;2.97;;;0.40;;
42244;SDS011;27912;51.828;5.688;2022-07-10T09:31:52;2.40;;;0.40;;
42244;SDS011;27912;51.828;5.688;2022-07-10T09:37:40;4.03;;;0.40;;
42244;SDS011;27912;51.828;5.688;2022-07-10T09:40:07;3.78;;;0.43;;
42244;SDS011;27912;51.828;5.688;2022-07-10T09:42:34;2.47;;;0.40;;
42244;SDS011;27912;51.828;5.688;2022-07-10T09:47:43;8.15;;;0.60;;
42244;SDS011;27912;51.828;5.688;2022-07-10T09:50:33;9.32;;;1.05;;
42244;SDS011;27912;51.828;5.688;2022-07-10T09:53:01;4.82;;;0.70;;
42244;SDS011;27912;51.828;5.688;2022-07-10T09:55:27;7.63;;;1.65;;
42244;SDS011;27912;51.828;5.688;2022-07-10T09:57:56;3.30;;;0.32;;
42244;SDS011;27912;51.828;5.688;2022-07-10T10:00:30;4.15;;;0.50;;
42244;SDS011;27912;51.828;5.688;2022-07-10T10:03:01;2.80;;;0.32;;
42244;SDS011;27912;51.828;5.688;2022-07-10T10:08:02;1.95;;;0.40;;
42244;SDS011;27912;51.828;5.688;2022-07-10T10:10:35;5.03;;;0.43;;
42244;SDS011;27912;51.828;5.688;2022-07-10T10:13:06;2.78;;;0.40;;
42244;SDS011;27912;51.828;5.688;2022-07-10T10:15:35;4.93;;;0.30;;
42244;SDS011;27912;51.828;5.688;2022-07-10T10:18:01;3.53;;;0.40;;
42244;SDS011;27912;51.828;5.688;2022-07-10T10:20:27;4.32;;;0.40;;
42244;SDS011;27912;51.828;5.688;2022-07-10T10:23:10;3.55;;;0.40;;
42244;SDS011;27912;51.828;5.688;2022-07-10T10:25:38;2.08;;;0.50;;
42244;SDS011;27912;51.828;5.688;2022-07-10T10:28:05;1.85;;;0.30;;
42244;SDS011;27912;51.828;5.688;2022-07-10T10:30:36;2.60;;;0.40;;
42244;SDS011;27912;51.828;5.688;2022-07-10T10:33:03;2.53;;;0.40;;
42244;SDS011;27912;51.828;5.688;2022-07-10T10:35:41;4.78;;;0.43;;
42244;SDS011;27912;51.828;5.688;2022-07-10T10:38:08;2.53;;;0.40;;
42244;SDS011;27912;51.828;5.688;2022-07-10T10:40:34;1.60;;;0.30;;
42244;SDS011;27912;51.828;5.688;2022-07-10T10:45:43;1.98;;;0.30;;
42244;SDS011;27912;51.828;5.688;2022-07-10T10:48:10;2.58;;;0.43;;
42244;SDS011;27912;51.828;5.688;2022-07-10T10:53:23;4.68;;;0.40;;
42244;SDS011;27912;51.828;5.688;2022-07-10T10:58:46;1.17;;;0.30;;
42244;SDS011;27912;51.828;5.688;2022-07-10T11:06:40;3.25;;;0.40;;
42244;SDS011;27912;51.828;5.688;2022-07-10T11:12:03;7.35;;;0.50;;
42244;SDS011;27912;51.828;5.688;2022-07-10T11:14:33;3.28;;;0.22;;
42244;SDS011;27912;51.828;5.688;2022-07-10T11:17:03;2.45;;;0.30;;
42244;SDS011;27912;51.828;5.688;2022-07-10T11:19:30;1.90;;;0.20;;
42244;SDS011;27912;51.828;5.688;2022-07-10T11:21:59;2.50;;;0.50;;
42244;SDS011;27912;51.828;5.688;2022-07-10T11:24:33;2.03;;;0.32;;
42244;SDS011;27912;51.828;5.688;2022-07-10T11:30:16;2.15;;;0.40;;
42244;SDS011;27912;51.828;5.688;2022-07-10T11:32:42;2.38;;;0.40;;
42244;SDS011;27912;51.828;5.688;2022-07-10T11:35:13;1.42;;;0.30;;
42244;SDS011;27912;51.828;5.688;2022-07-10T11:40:17;1.60;;;0.20;;
42244;SDS011;27912;51.828;5.688;2022-07-10T11:42:47;3.53;;;0.30;;
42244;SDS011;27912;51.828;5.688;2022-07-10T11:45:30;1.80;;;0.40;;
42244;SDS011;27912;51.828;5.688;2022-07-10T11:47:59;1.15;;;0.30;;
42244;SDS011;27912;51.828;5.688;2022-07-10T11:50:25;1.70;;;0.30;;
42244;SDS011;27912;51.828;5.688;2022-07-10T11:52:52;5.07;;;0.40;;
42244;SDS011;27912;51.828;5.688;2022-07-10T11:55:20;1.42;;;0.38;;
42244;SDS011;27912;51.828;5.688;2022-07-10T11:57:46;2.42;;;0.40;;
42244;SDS011;27912;51.828;5.688;2022-07-10T12:00:25;3.63;;;0.30;;
42244;SDS011;27912;51.828;5.688;2022-07-10T12:02:53;1.02;;;0.30;;
42244;SDS011;27912;51.828;5.688;2022-07-10T12:08:03;1.75;;;0.28;;
42244;SDS011;27912;51.828;5.688;2022-07-10T12:10:30;2.50;;;0.30;;
42244;SDS011;27912;51.828;5.688;2022-07-10T12:13:06;1.63;;;0.32;;
42244;SDS011;27912;51.828;5.688;2022-07-10T12:15:34;1.58;;;0.30;;
42244;SDS011;27912;51.828;5.688;2022-07-10T12:18:02;2.42;;;0.40;;
42244;SDS011;27912;51.828;5.688;2022-07-10T12:20:39;1.27;;;0.30;;
42244;SDS011;27912;51.828;5.688;2022-07-10T12:23:10;2.42;;;0.40;;
42244;SDS011;27912;51.828;5.688;2022-07-10T12:25:37;3.42;;;0.40;;
42244;SDS011;27912;51.828;5.688;2022-07-10T12:28:03;1.85;;;0.40;;
42244;SDS011;27912;51.828;5.688;2022-07-10T12:30:36;2.63;;;0.40;;
42244;SDS011;27912;51.828;5.688;2022-07-10T12:33:06;1.45;;;0.30;;
42244;SDS011;27912;51.828;5.688;2022-07-10T12:35:56;4.75;;;0.40;;
42244;SDS011;27912;51.828;5.688;2022-07-10T12:38:24;1.58;;;0.30;;
42244;SDS011;27912;51.828;5.688;2022-07-10T12:40:58;1.92;;;0.30;;
42244;SDS011;27912;51.828;5.688;2022-07-10T12:43:35;1.98;;;0.30;;
42244;SDS011;27912;51.828;5.688;2022-07-10T12:46:14;2.50;;;0.30;;
42244;SDS011;27912;51.828;5.688;2022-07-10T12:48:59;2.05;;;0.40;;
42244;SDS011;27912;51.828;5.688;2022-07-10T12:51:26;1.77;;;0.40;;
42244;SDS011;27912;51.828;5.688;2022-07-10T12:53:53;3.75;;;0.30;;
42244;SDS011;27912;51.828;5.688;2022-07-10T12:56:35;2.42;;;0.40;;
42244;SDS011;27912;51.828;5.688;2022-07-10T12:59:13;5.15;;;0.32;;
42244;SDS011;27912;51.828;5.688;2022-07-10T13:01:40;2.45;;;0.40;;
42244;SDS011;27912;51.828;5.688;2022-07-10T13:04:07;1.27;;;0.20;;
42244;SDS011;27912;51.828;5.688;2022-07-10T13:06:34;1.25;;;0.30;;
42244;SDS011;27912;51.828;5.688;2022-07-10T13:09:17;1.88;;;0.30;;
42244;SDS011;27912;51.828;5.688;2022-07-10T13:11:53;2.85;;;0.22;;
42244;SDS011;27912;51.828;5.688;2022-07-10T13:14:19;1.45;;;0.20;;
42244;SDS011;27912;51.828;5.688;2022-07-10T13:16:45;2.80;;;0.30;;
42244;SDS011;27912;51.828;5.688;2022-07-10T13:19:11;1.02;;;0.20;;
42244;SDS011;27912;51.828;5.688;2022-07-10T13:21:37;1.52;;;0.22;;
42244;SDS011;27912;51.828;5.688;2022-07-10T13:24:03;2.00;;;0.20;;
42244;SDS011;27912;51.828;5.688;2022-07-10T13:26:29;1.55;;;0.43;;
42244;SDS011;27912;51.828;5.688;2022-07-10T13:28:56;3.33;;;0.30;;
42244;SDS011;27912;51.828;5.688;2022-07-10T13:31:22;2.88;;;0.40;;
42244;SDS011;27912;51.828;5.688;2022-07-10T13:33:47;2.50;;;0.25;;
42244;SDS011;27912;51.828;5.688;2022-07-10T13:36:13;2.72;;;0.40;;
42244;SDS011;27912;51.828;5.688;2022-07-10T13:38:39;1.27;;;0.28;;
42244;SDS011;27912;51.828;5.688;2022-07-10T13:41:05;2.70;;;0.20;;
42244;SDS011;27912;51.828;5.688;2022-07-10T13:43:31;1.40;;;0.20;;
42244;SDS011;27912;51.828;5.688;2022-07-10T13:45:57;3.53;;;0.30;;
42244;SDS011;27912;51.828;5.688;2022-07-10T13:48:24;2.03;;;0.40;;
42244;SDS011;27912;51.828;5.688;2022-07-10T13:50:50;2.92;;;0.30;;
42244;SDS011;27912;51.828;5.688;2022-07-10T13:53:16;1.48;;;0.20;;
42244;SDS011;27912;51.828;5.688;2022-07-10T13:55:42;2.67;;;0.22;;
42244;SDS011;27912;51.828;5.688;2022-07-10T13:58:09;0.77;;;0.20;;
42244;SDS011;27912;51.828;5.688;2022-07-10T14:00:35;2.75;;;0.10;;
42244;SDS011;27912;51.828;5.688;2022-07-10T14:03:01;1.65;;;0.20;;
42244;SDS011;27912;51.828;5.688;2022-07-10T14:05:28;1.90;;;0.20;;
42244;SDS011;27912;51.828;5.688;2022-07-10T14:07:54;1.17;;;0.20;;
42244;SDS011;27912;51.828;5.688;2022-07-10T14:10:20;0.90;;;0.20;;
42244;SDS011;27912;51.828;5.688;2022-07-10T14:12:45;1.15;;;0.20;;
42244;SDS011;27912;51.828;5.688;2022-07-10T14:15:12;0.80;;;0.20;;
42244;SDS011;27912;51.828;5.688;2022-07-10T14:17:38;0.73;;;0.10;;
42244;SDS011;27912;51.828;5.688;2022-07-10T14:20:03;2.20;;;0.20;;
42244;SDS011;27912;51.828;5.688;2022-07-10T14:22:29;2.63;;;0.30;;
42244;SDS011;27912;51.828;5.688;2022-07-10T14:24:55;2.15;;;0.25;;
42244;SDS011;27912;51.828;5.688;2022-07-10T14:27:22;2.30;;;0.20;;
42244;SDS011;27912;51.828;5.688;2022-07-10T14:29:52;4.07;;;0.30;;
42244;SDS011;27912;51.828;5.688;2022-07-10T14:32:18;3.30;;;0.20;;
42244;SDS011;27912;51.828;5.688;2022-07-10T14:34:44;0.55;;;0.17;;
42244;SDS011;27912;51.828;5.688;2022-07-10T14:37:09;2.45;;;0.40;;
42244;SDS011;27912;51.828;5.688;2022-07-10T14:39:35;3.05;;;0.30;;
42244;SDS011;27912;51.828;5.688;2022-07-10T14:42:01;2.08;;;0.22;;
42244;SDS011;27912;51.828;5.688;2022-07-10T14:44:29;1.58;;;0.25;;
42244;SDS011;27912;51.828;5.688;2022-07-10T14:46:56;3.80;;;0.20;;
42244;SDS011;27912;51.828;5.688;2022-07-10T14:49:22;2.15;;;0.50;;
42244;SDS011;27912;51.828;5.688;2022-07-10T14:51:47;0.98;;;0.30;;
42244;SDS011;27912;51.828;5.688;2022-07-10T14:54:13;1.25;;;0.22;;
42244;SDS011;27912;51.828;5.688;2022-07-10T14:56:38;1.25;;;0.20;;
42244;SDS011;27912;51.828;5.688;2022-07-10T14:59:04;2.15;;;0.20;;
42244;SDS011;27912;51.828;5.688;2022-07-10T15:01:29;4.35;;;0.30;;
42244;SDS011;27912;51.828;5.688;2022-07-10T15:03:55;2.40;;;0.22;;
42244;SDS011;27912;51.828;5.688;2022-07-10T15:06:22;1.52;;;0.20;;
42244;SDS011;27912;51.828;5.688;2022-07-10T15:08:48;1.90;;;0.30;;
42244;SDS011;27912;51.828;5.688;2022-07-10T15:11:17;1.33;;;0.30;;
42244;SDS011;27912;51.828;5.688;2022-07-10T15:13:46;1.50;;;0.20;;
42244;SDS011;27912;51.828;5.688;2022-07-10T15:16:12;1.13;;;0.20;;
42244;SDS011;27912;51.828;5.688;2022-07-10T15:18:38;2.13;;;0.30;;
42244;SDS011;27912;51.828;5.688;2022-07-10T15:21:04;1.85;;;0.38;;
42244;SDS011;27912;51.828;5.688;2022-07-10T15:23:29;1.77;;;0.30;;